PWSweather.com
Personal Weather Stations
Station Observations
WD4JKH
Forsyth, GA 31029

Forsyth, GA 31029

Lat: 33.033225, Lon: -83.927995

Elevation: 709

Station Type: Davis Vantage VUE

High Low Average
Temperature 55.3°F12.9°C 48.9°F9.4°C 50.8°F10.4°C
Dew Point 47.6°F8.7°C 45.1°F7.3°C 46.3°F7.9°C
Winds 7.9 mph 12.7 kmh Calm Calm 3.0 mph WNW4.8 kmh WNW
Wind Gusts 16.0 mph25.7 kmh 3.0 mph4.8 kmh 10.0 mph16.1 kmh
Humidity 94% 72% 85%
Pressure 30.15 in1021.0 mb 30.05 in1017.6 mb -
Precipitation 0.00 in0.0 mm - -
Hour Temp Dew Point Humidity Winds Wind Gusts Pressure Precip Precip Rate Daily Precip Total
12:01 AM 49.2°F9.6°C 47.3°F8.5°C 93% 1.8 mph WSW2.9 kmh WSW 6.0 mph9.7 kmh 30.07 in1018.3 mb 0.00 in0.0 mm 0.00 in0.0 mm 0.00 in0.0 mm
12:06 AM 49.2°F9.6°C 47.2°F8.4°C 93% 2.0 mph WSW3.2 kmh WSW 6.0 mph9.7 kmh 30.07 in1018.3 mb 0.00 in0.0 mm 0.00 in0.0 mm 0.00 in0.0 mm
12:11 AM 49.3°F9.6°C 47.3°F8.5°C 93% 1.0 mph WSW1.6 kmh WSW 6.0 mph9.7 kmh 30.06 in1017.9 mb 0.00 in0.0 mm 0.00 in0.0 mm 0.00 in0.0 mm
12:16 AM 49.3°F9.6°C 47.3°F8.5°C 93% 1.5 mph W2.4 kmh W 4.0 mph6.4 kmh 30.06 in1017.9 mb 0.00 in0.0 mm 0.00 in0.0 mm 0.00 in0.0 mm
12:21 AM 49.3°F9.6°C 47.4°F8.6°C 93% 2.1 mph WSW3.4 kmh WSW 5.0 mph8.0 kmh 30.06 in1017.9 mb 0.00 in0.0 mm 0.00 in0.0 mm 0.00 in0.0 mm
12:26 AM 49.3°F9.6°C 47.4°F8.6°C 93% 1.2 mph W1.9 kmh W 5.0 mph8.0 kmh 30.06 in1017.9 mb 0.00 in0.0 mm 0.00 in0.0 mm 0.00 in0.0 mm
12:31 AM 49.3°F9.6°C 47.3°F8.5°C 93% 1.6 mph WSW2.6 kmh WSW 5.0 mph8.0 kmh 30.05 in1017.6 mb 0.00 in0.0 mm 0.00 in0.0 mm 0.00 in0.0 mm
12:36 AM 49.3°F9.6°C 47.3°F8.5°C 93% 1.9 mph W3.1 kmh W 5.0 mph8.0 kmh 30.05 in1017.6 mb 0.00 in0.0 mm 0.00 in0.0 mm 0.00 in0.0 mm
12:41 AM 49.3°F9.6°C 47.3°F8.5°C 93% 2.1 mph WSW3.4 kmh WSW 4.0 mph6.4 kmh 30.05 in1017.6 mb 0.00 in0.0 mm 0.00 in0.0 mm 0.00 in0.0 mm
12:46 AM 49.2°F9.6°C 47.2°F8.4°C 93% 1.9 mph WSW3.1 kmh WSW 4.0 mph6.4 kmh 30.05 in1017.6 mb 0.00 in0.0 mm 0.00 in0.0 mm 0.00 in0.0 mm
12:51 AM 49.2°F9.6°C 47.2°F8.4°C 93% 1.3 mph WSW2.1 kmh WSW 4.0 mph6.4 kmh 30.05 in1017.6 mb 0.00 in0.0 mm 0.00 in0.0 mm 0.00 in0.0 mm
12:56 AM 49.2°F9.6°C 47.2°F8.4°C 93% 1.3 mph WSW2.1 kmh WSW 4.0 mph6.4 kmh 30.05 in1017.6 mb 0.00 in0.0 mm 0.00 in0.0 mm 0.00 in0.0 mm
01:01 AM 49.2°F9.6°C 47.2°F8.4°C 93% 1.0 mph SW1.6 kmh SW 4.0 mph6.4 kmh 30.05 in1017.6 mb 0.00 in0.0 mm 0.00 in0.0 mm 0.00 in0.0 mm
01:06 AM 49.1°F9.5°C 47.2°F8.4°C 93% 1.0 mph WSW1.6 kmh WSW 4.0 mph6.4 kmh 30.05 in1017.6 mb 0.00 in0.0 mm 0.00 in0.0 mm 0.00 in0.0 mm
01:11 AM 49.1°F9.5°C 47.4°F8.6°C 94% 1.0 mph SW1.6 kmh SW 3.0 mph4.8 kmh 30.05 in1017.6 mb 0.00 in0.0 mm 0.00 in0.0 mm 0.00 in0.0 mm
01:16 AM 49.0°F9.4°C 47.3°F8.5°C 94% 1.8 mph WSW2.9 kmh WSW 3.0 mph4.8 kmh 30.05 in1017.6 mb 0.00 in0.0 mm 0.00 in0.0 mm 0.00 in0.0 mm
01:21 AM 49.0°F9.4°C 47.3°F8.5°C 94% 1.0 mph W1.6 kmh W 3.0 mph4.8 kmh 30.05 in1017.6 mb 0.00 in0.0 mm 0.00 in0.0 mm 0.00 in0.0 mm
01:26 AM 49.0°F9.4°C 47.3°F8.5°C 94% 1.0 mph WSW1.6 kmh WSW 3.0 mph4.8 kmh 30.05 in1017.6 mb 0.00 in0.0 mm 0.00 in0.0 mm 0.00 in0.0 mm
01:31 AM 49.0°F9.4°C 47.3°F8.5°C 94% 1.1 mph WSW1.8 kmh WSW 3.0 mph4.8 kmh 30.05 in1017.6 mb 0.00 in0.0 mm 0.00 in0.0 mm 0.00 in0.0 mm
01:36 AM 49.0°F9.4°C 47.3°F8.5°C 94% 1.7 mph WSW2.7 kmh WSW 3.0 mph4.8 kmh 30.05 in1017.6 mb 0.00 in0.0 mm 0.00 in0.0 mm 0.00 in0.0 mm
01:41 AM 49.1°F9.5°C 47.4°F8.6°C 94% 2.0 mph WSW3.2 kmh WSW 4.0 mph6.4 kmh 30.05 in1017.6 mb 0.00 in0.0 mm 0.00 in0.0 mm 0.00 in0.0 mm
01:46 AM 49.1°F9.5°C 47.4°F8.6°C 94% 1.7 mph WSW2.7 kmh WSW 4.0 mph6.4 kmh 30.05 in1017.6 mb 0.00 in0.0 mm 0.00 in0.0 mm 0.00 in0.0 mm
01:51 AM 49.1°F9.5°C 47.4°F8.6°C 94% 2.1 mph WSW3.4 kmh WSW 6.0 mph9.7 kmh 30.05 in1017.6 mb 0.00 in0.0 mm 0.00 in0.0 mm 0.00 in0.0 mm
01:56 AM 49.1°F9.5°C 47.1°F8.4°C 93% 1.4 mph WSW2.3 kmh WSW 6.0 mph9.7 kmh 30.05 in1017.6 mb 0.00 in0.0 mm 0.00 in0.0 mm 0.00 in0.0 mm
02:01 AM 49.1°F9.5°C 47.1°F8.4°C 93% 2.1 mph WSW3.4 kmh WSW 6.0 mph9.7 kmh 30.05 in1017.6 mb 0.00 in0.0 mm 0.00 in0.0 mm 0.00 in0.0 mm
02:06 AM 49.2°F9.6°C 47.2°F8.4°C 93% 2.3 mph WSW3.7 kmh WSW 5.0 mph8.0 kmh 30.05 in1017.6 mb 0.00 in0.0 mm 0.00 in0.0 mm 0.00 in0.0 mm
02:11 AM 49.1°F9.5°C 47.1°F8.4°C 93% 2.1 mph W3.4 kmh W 5.0 mph8.0 kmh 30.05 in1017.6 mb 0.00 in0.0 mm 0.00 in0.0 mm 0.00 in0.0 mm
02:16 AM 49.1°F9.5°C 47.1°F8.4°C 93% 2.1 mph WSW3.4 kmh WSW 5.0 mph8.0 kmh 30.05 in1017.6 mb 0.00 in0.0 mm 0.00 in0.0 mm 0.00 in0.0 mm
02:21 AM 49.0°F9.4°C 47.0°F8.3°C 93% 3.7 mph SW6.0 kmh SW 5.0 mph8.0 kmh 30.05 in1017.6 mb 0.00 in0.0 mm 0.00 in0.0 mm 0.00 in0.0 mm
02:26 AM 49.1°F9.5°C 47.1°F8.4°C 93% 2.4 mph SW3.9 kmh SW 6.0 mph9.7 kmh 30.05 in1017.6 mb 0.00 in0.0 mm 0.00 in0.0 mm 0.00 in0.0 mm
02:31 AM 49.0°F9.4°C 47.0°F8.3°C 93% 1.6 mph WSW2.6 kmh WSW 6.0 mph9.7 kmh 30.05 in1017.6 mb 0.00 in0.0 mm 0.00 in0.0 mm 0.00 in0.0 mm
02:36 AM 49.0°F9.4°C 47.0°F8.3°C 93% 1.3 mph WSW2.1 kmh WSW 6.0 mph9.7 kmh 30.05 in1017.6 mb 0.00 in0.0 mm 0.00 in0.0 mm 0.00 in0.0 mm
02:41 AM 49.0°F9.4°C 47.1°F8.4°C 93% 2.3 mph WSW3.7 kmh WSW 5.0 mph8.0 kmh 30.05 in1017.6 mb 0.00 in0.0 mm 0.00 in0.0 mm 0.00 in0.0 mm
02:46 AM 49.0°F9.4°C 47.0°F8.3°C 93% 2.3 mph W3.7 kmh W 6.0 mph9.7 kmh 30.06 in1017.9 mb 0.00 in0.0 mm 0.00 in0.0 mm 0.00 in0.0 mm
02:51 AM 49.1°F9.5°C 47.1°F8.4°C 93% 1.7 mph W2.7 kmh W 6.0 mph9.7 kmh 30.06 in1017.9 mb 0.00 in0.0 mm 0.00 in0.0 mm 0.00 in0.0 mm
02:56 AM 49.1°F9.5°C 47.1°F8.4°C 93% 1.8 mph W2.9 kmh W 7.0 mph11.3 kmh 30.06 in1017.9 mb 0.00 in0.0 mm 0.00 in0.0 mm 0.00 in0.0 mm
03:01 AM 49.2°F9.6°C 46.9°F8.3°C 92% 1.6 mph W2.6 kmh W 8.0 mph12.9 kmh 30.06 in1017.9 mb 0.00 in0.0 mm 0.00 in0.0 mm 0.00 in0.0 mm
03:06 AM 49.2°F9.6°C 46.9°F8.3°C 92% 2.1 mph W3.4 kmh W 8.0 mph12.9 kmh 30.06 in1017.9 mb 0.00 in0.0 mm 0.00 in0.0 mm 0.00 in0.0 mm
03:11 AM 49.2°F9.6°C 46.9°F8.3°C 92% 2.7 mph W4.3 kmh W 8.0 mph12.9 kmh 30.06 in1017.9 mb 0.00 in0.0 mm 0.00 in0.0 mm 0.00 in0.0 mm
03:16 AM 49.2°F9.6°C 46.9°F8.3°C 92% 2.7 mph W4.3 kmh W 8.0 mph12.9 kmh 30.06 in1017.9 mb 0.00 in0.0 mm 0.00 in0.0 mm 0.00 in0.0 mm
03:21 AM 49.1°F9.5°C 46.8°F8.2°C 92% 1.8 mph WNW2.9 kmh WNW 7.0 mph11.3 kmh 30.06 in1017.9 mb 0.00 in0.0 mm 0.00 in0.0 mm 0.00 in0.0 mm
03:26 AM 49.1°F9.5°C 46.8°F8.2°C 92% 2.5 mph W4.0 kmh W 7.0 mph11.3 kmh 30.05 in1017.6 mb 0.00 in0.0 mm 0.00 in0.0 mm 0.00 in0.0 mm
03:31 AM 49.1°F9.5°C 46.8°F8.2°C 92% 1.5 mph W2.4 kmh W 7.0 mph11.3 kmh 30.05 in1017.6 mb 0.00 in0.0 mm 0.00 in0.0 mm 0.00 in0.0 mm
03:36 AM 49.1°F9.5°C 46.8°F8.2°C 92% 1.8 mph W2.9 kmh W 7.0 mph11.3 kmh 30.05 in1017.6 mb 0.00 in0.0 mm 0.00 in0.0 mm 0.00 in0.0 mm
03:41 AM 49.2°F9.6°C 46.6°F8.1°C 91% 1.5 mph W2.4 kmh W 8.0 mph12.9 kmh 30.05 in1017.6 mb 0.00 in0.0 mm 0.00 in0.0 mm 0.00 in0.0 mm
03:46 AM 49.3°F9.6°C 46.7°F8.2°C 91% 1.9 mph W3.1 kmh W 8.0 mph12.9 kmh 30.05 in1017.6 mb 0.00 in0.0 mm 0.00 in0.0 mm 0.00 in0.0 mm
03:51 AM 49.3°F9.6°C 46.7°F8.2°C 91% 1.7 mph WSW2.7 kmh WSW 8.0 mph12.9 kmh 30.05 in1017.6 mb 0.00 in0.0 mm 0.00 in0.0 mm 0.00 in0.0 mm
03:56 AM 49.4°F9.7°C 46.8°F8.2°C 91% 1.9 mph W3.1 kmh W 8.0 mph12.9 kmh 30.05 in1017.6 mb 0.00 in0.0 mm 0.00 in0.0 mm 0.00 in0.0 mm
04:00 AM 49.4°F9.7°C 46.8°F8.2°C 91% 2.4 mph W3.9 kmh W 7.0 mph11.3 kmh 30.05 in1017.6 mb 0.00 in0.0 mm 0.00 in0.0 mm 0.00 in0.0 mm
04:05 AM 49.5°F9.7°C 46.9°F8.3°C 91% 2.0 mph W3.2 kmh W 9.0 mph14.5 kmh 30.06 in1017.9 mb 0.00 in0.0 mm 0.00 in0.0 mm 0.00 in0.0 mm
04:10 AM 49.5°F9.7°C 46.9°F8.3°C 91% 2.7 mph W4.3 kmh W 9.0 mph14.5 kmh 30.06 in1017.9 mb 0.00 in0.0 mm 0.00 in0.0 mm 0.00 in0.0 mm
04:15 AM 49.5°F9.7°C 46.9°F8.3°C 91% 2.9 mph W4.7 kmh W 9.0 mph14.5 kmh 30.07 in1018.3 mb 0.00 in0.0 mm 0.00 in0.0 mm 0.00 in0.0 mm
04:20 AM 49.5°F9.7°C 46.9°F8.3°C 91% 2.3 mph W3.7 kmh W 7.0 mph11.3 kmh 30.07 in1018.3 mb 0.00 in0.0 mm 0.00 in0.0 mm 0.00 in0.0 mm
04:25 AM 49.5°F9.7°C 46.7°F8.2°C 90% 3.7 mph WNW6.0 kmh WNW 7.0 mph11.3 kmh 30.07 in1018.3 mb 0.00 in0.0 mm 0.00 in0.0 mm 0.00 in0.0 mm
04:30 AM 49.6°F9.8°C 46.7°F8.2°C 90% 1.8 mph WNW2.9 kmh WNW 7.0 mph11.3 kmh 30.07 in1018.3 mb 0.00 in0.0 mm 0.00 in0.0 mm 0.00 in0.0 mm
04:35 AM 49.6°F9.8°C 46.7°F8.2°C 90% 4.2 mph WNW6.8 kmh WNW 10.0 mph16.1 kmh 30.07 in1018.3 mb 0.00 in0.0 mm 0.00 in0.0 mm 0.00 in0.0 mm
04:40 AM 49.6°F9.8°C 46.7°F8.2°C 90% 1.6 mph WNW2.6 kmh WNW 10.0 mph16.1 kmh 30.08 in1018.6 mb 0.00 in0.0 mm 0.00 in0.0 mm 0.00 in0.0 mm
04:45 AM 49.6°F9.8°C 46.7°F8.2°C 90% 3.0 mph WNW4.8 kmh WNW 10.0 mph16.1 kmh 30.08 in1018.6 mb 0.00 in0.0 mm 0.00 in0.0 mm 0.00 in0.0 mm
04:50 AM 49.6°F9.8°C 46.8°F8.2°C 90% 2.5 mph WNW4.0 kmh WNW 10.0 mph16.1 kmh 30.08 in1018.6 mb 0.00 in0.0 mm 0.00 in0.0 mm 0.00 in0.0 mm
04:55 AM 49.6°F9.8°C 46.7°F8.2°C 90% 3.9 mph W6.3 kmh W 10.0 mph16.1 kmh 30.07 in1018.3 mb 0.00 in0.0 mm 0.00 in0.0 mm 0.00 in0.0 mm
05:00 AM 49.6°F9.8°C 46.7°F8.2°C 90% 1.5 mph W2.4 kmh W 8.0 mph12.9 kmh 30.08 in1018.6 mb 0.00 in0.0 mm 0.00 in0.0 mm 0.00 in0.0 mm
05:05 AM 49.6°F9.8°C 46.7°F8.2°C 90% 4.7 mph W7.6 kmh W 11.0 mph17.7 kmh 30.07 in1018.3 mb 0.00 in0.0 mm 0.00 in0.0 mm 0.00 in0.0 mm
05:10 AM 49.6°F9.8°C 46.7°F8.2°C 90% 1.9 mph WNW3.1 kmh WNW 11.0 mph17.7 kmh 30.07 in1018.3 mb 0.00 in0.0 mm 0.00 in0.0 mm 0.00 in0.0 mm
05:15 AM 49.6°F9.8°C 46.5°F8.1°C 89% 3.8 mph W6.1 kmh W 11.0 mph17.7 kmh 30.07 in1018.3 mb 0.00 in0.0 mm 0.00 in0.0 mm 0.00 in0.0 mm
05:20 AM 49.7°F9.8°C 46.6°F8.1°C 89% 3.5 mph W5.6 kmh W 11.0 mph17.7 kmh 30.07 in1018.3 mb 0.00 in0.0 mm 0.00 in0.0 mm 0.00 in0.0 mm
05:25 AM 49.7°F9.8°C 46.3°F7.9°C 88% 2.5 mph W4.0 kmh W 9.0 mph14.5 kmh 30.07 in1018.3 mb 0.00 in0.0 mm 0.00 in0.0 mm 0.00 in0.0 mm
05:30 AM 49.8°F9.9°C 46.4°F8.0°C 88% 4.5 mph W7.2 kmh W 10.0 mph16.1 kmh 30.07 in1018.3 mb 0.00 in0.0 mm 0.00 in0.0 mm 0.00 in0.0 mm
05:35 AM 49.8°F9.9°C 46.4°F8.0°C 88% 2.0 mph WSW3.2 kmh WSW 10.0 mph16.1 kmh 30.07 in1018.3 mb 0.00 in0.0 mm 0.00 in0.0 mm 0.00 in0.0 mm
05:40 AM 49.8°F9.9°C 46.4°F8.0°C 88% 1.9 mph W3.1 kmh W 10.0 mph16.1 kmh 30.07 in1018.3 mb 0.00 in0.0 mm 0.00 in0.0 mm 0.00 in0.0 mm
05:45 AM 49.9°F9.9°C 46.2°F7.9°C 87% 2.9 mph WSW4.7 kmh WSW 9.0 mph14.5 kmh 30.08 in1018.6 mb 0.00 in0.0 mm 0.00 in0.0 mm 0.00 in0.0 mm
05:50 AM 49.8°F9.9°C 46.1°F7.8°C 87% 1.2 mph W1.9 kmh W 8.0 mph12.9 kmh 30.08 in1018.6 mb 0.00 in0.0 mm 0.00 in0.0 mm 0.00 in0.0 mm
05:55 AM 49.8°F9.9°C 46.1°F7.8°C 87% 2.8 mph WSW4.5 kmh WSW 8.0 mph12.9 kmh 30.08 in1018.6 mb 0.00 in0.0 mm 0.00 in0.0 mm 0.00 in0.0 mm
06:00 AM 49.8°F9.9°C 46.1°F7.8°C 87% 1.0 mph WSW1.6 kmh WSW 7.0 mph11.3 kmh 30.08 in1018.6 mb 0.00 in0.0 mm 0.00 in0.0 mm 0.00 in0.0 mm
06:05 AM 49.8°F9.9°C 46.1°F7.8°C 87% 1.0 mph W1.6 kmh W 5.0 mph8.0 kmh 30.08 in1018.6 mb 0.00 in0.0 mm 0.00 in0.0 mm 0.00 in0.0 mm
06:10 AM 49.8°F9.9°C 46.1°F7.8°C 87% Calm Calm 5.0 mph8.0 kmh 30.08 in1018.6 mb 0.00 in0.0 mm 0.00 in0.0 mm 0.00 in0.0 mm
06:15 AM 49.8°F9.9°C 46.1°F7.8°C 87% 1.4 mph W2.3 kmh W 6.0 mph9.7 kmh 30.09 in1019.0 mb 0.00 in0.0 mm 0.00 in0.0 mm 0.00 in0.0 mm
06:20 AM 49.7°F9.8°C 46.0°F7.8°C 87% 1.2 mph WSW1.9 kmh WSW 6.0 mph9.7 kmh 30.09 in1019.0 mb 0.00 in0.0 mm 0.00 in0.0 mm 0.00 in0.0 mm
06:25 AM 49.6°F9.8°C 46.2°F7.9°C 88% 2.3 mph WSW3.7 kmh WSW 10.0 mph16.1 kmh 30.09 in1019.0 mb 0.00 in0.0 mm 0.00 in0.0 mm 0.00 in0.0 mm
06:30 AM 49.6°F9.8°C 46.2°F7.9°C 88% 3.5 mph WSW5.6 kmh WSW 10.0 mph16.1 kmh 30.09 in1019.0 mb 0.00 in0.0 mm 0.00 in0.0 mm 0.00 in0.0 mm
06:35 AM 49.6°F9.8°C 46.2°F7.9°C 88% 3.4 mph WNW5.5 kmh WNW 10.0 mph16.1 kmh 30.10 in1019.3 mb 0.00 in0.0 mm 0.00 in0.0 mm 0.00 in0.0 mm
06:40 AM 49.6°F9.8°C 46.2°F7.9°C 88% 2.7 mph WNW4.3 kmh WNW 7.0 mph11.3 kmh 30.10 in1019.3 mb 0.00 in0.0 mm 0.00 in0.0 mm 0.00 in0.0 mm
06:45 AM 49.6°F9.8°C 46.2°F7.9°C 88% 1.9 mph WNW3.1 kmh WNW 7.0 mph11.3 kmh 30.10 in1019.3 mb 0.00 in0.0 mm 0.00 in0.0 mm 0.00 in0.0 mm
06:50 AM 49.5°F9.7°C 46.1°F7.8°C 88% 2.2 mph W3.5 kmh W 7.0 mph11.3 kmh 30.10 in1019.3 mb 0.00 in0.0 mm 0.00 in0.0 mm 0.00 in0.0 mm
06:55 AM 49.5°F9.7°C 46.1°F7.8°C 88% 2.4 mph W3.9 kmh W 9.0 mph14.5 kmh 30.11 in1019.6 mb 0.00 in0.0 mm 0.00 in0.0 mm 0.00 in0.0 mm
07:00 AM 49.5°F9.7°C 46.1°F7.8°C 88% 1.4 mph W2.3 kmh W 9.0 mph14.5 kmh 30.11 in1019.6 mb 0.00 in0.0 mm 0.00 in0.0 mm 0.00 in0.0 mm
07:05 AM 49.4°F9.7°C 45.7°F7.6°C 87% 3.4 mph WNW5.5 kmh WNW 9.0 mph14.5 kmh 30.10 in1019.3 mb 0.00 in0.0 mm 0.00 in0.0 mm 0.00 in0.0 mm
07:10 AM 49.4°F9.7°C 45.7°F7.6°C 87% 3.4 mph WNW5.5 kmh WNW 9.0 mph14.5 kmh 30.11 in1019.6 mb 0.00 in0.0 mm 0.00 in0.0 mm 0.00 in0.0 mm
07:15 AM 49.4°F9.7°C 45.7°F7.6°C 87% 2.6 mph WNW4.2 kmh WNW 8.0 mph12.9 kmh 30.11 in1019.6 mb 0.00 in0.0 mm 0.00 in0.0 mm 0.00 in0.0 mm
07:20 AM 49.3°F9.6°C 45.6°F7.6°C 87% 1.7 mph W2.7 kmh W 8.0 mph12.9 kmh 30.11 in1019.6 mb 0.00 in0.0 mm 0.00 in0.0 mm 0.00 in0.0 mm
07:25 AM 49.3°F9.6°C 45.6°F7.6°C 87% 4.2 mph WNW6.8 kmh WNW 8.0 mph12.9 kmh 30.11 in1019.6 mb 0.00 in0.0 mm 0.00 in0.0 mm 0.00 in0.0 mm
07:30 AM 49.2°F9.6°C 45.5°F7.5°C 87% 4.5 mph WNW7.2 kmh WNW 11.0 mph17.7 kmh 30.11 in1019.6 mb 0.00 in0.0 mm 0.00 in0.0 mm 0.00 in0.0 mm
07:35 AM 49.2°F9.6°C 45.5°F7.5°C 87% 3.0 mph WNW4.8 kmh WNW 11.0 mph17.7 kmh 30.11 in1019.6 mb 0.00 in0.0 mm 0.00 in0.0 mm 0.00 in0.0 mm
07:40 AM 49.1°F9.5°C 45.4°F7.4°C 87% 1.5 mph W2.4 kmh W 11.0 mph17.7 kmh 30.12 in1020.0 mb 0.00 in0.0 mm 0.00 in0.0 mm 0.00 in0.0 mm
07:45 AM 49.1°F9.5°C 45.7°F7.6°C 88% 3.6 mph W5.8 kmh W 11.0 mph17.7 kmh 30.12 in1020.0 mb 0.00 in0.0 mm 0.00 in0.0 mm 0.00 in0.0 mm
07:50 AM 49.1°F9.5°C 45.7°F7.6°C 88% 2.1 mph WNW3.4 kmh WNW 10.0 mph16.1 kmh 30.12 in1020.0 mb 0.00 in0.0 mm 0.00 in0.0 mm 0.00 in0.0 mm
07:55 AM 49.0°F9.4°C 45.6°F7.6°C 88% 3.0 mph WNW4.8 kmh WNW 7.0 mph11.3 kmh 30.12 in1020.0 mb 0.00 in0.0 mm 0.00 in0.0 mm 0.00 in0.0 mm
08:00 AM 49.0°F9.4°C 45.6°F7.6°C 88% 2.4 mph WNW3.9 kmh WNW 7.0 mph11.3 kmh 30.12 in1020.0 mb 0.00 in0.0 mm 0.00 in0.0 mm 0.00 in0.0 mm
08:05 AM 48.9°F9.4°C 45.5°F7.5°C 88% 3.2 mph W5.1 kmh W 7.0 mph11.3 kmh 30.12 in1020.0 mb 0.00 in0.0 mm 0.00 in0.0 mm 0.00 in0.0 mm
08:10 AM 48.9°F9.4°C 45.5°F7.5°C 88% 2.2 mph WNW3.5 kmh WNW 7.0 mph11.3 kmh 30.12 in1020.0 mb 0.00 in0.0 mm 0.00 in0.0 mm 0.00 in0.0 mm
08:15 AM 48.9°F9.4°C 45.8°F7.7°C 89% 1.4 mph W2.3 kmh W 7.0 mph11.3 kmh 30.12 in1020.0 mb 0.00 in0.0 mm 0.00 in0.0 mm 0.00 in0.0 mm
08:20 AM 48.9°F9.4°C 45.8°F7.7°C 89% 3.4 mph WNW5.5 kmh WNW 9.0 mph14.5 kmh 30.12 in1020.0 mb 0.00 in0.0 mm 0.00 in0.0 mm 0.00 in0.0 mm
08:25 AM 48.9°F9.4°C 45.8°F7.7°C 89% 2.9 mph W4.7 kmh W 9.0 mph14.5 kmh 30.12 in1020.0 mb 0.00 in0.0 mm 0.00 in0.0 mm 0.00 in0.0 mm
08:30 AM 48.9°F9.4°C 45.8°F7.7°C 89% 3.7 mph W6.0 kmh W 9.0 mph14.5 kmh 30.12 in1020.0 mb 0.00 in0.0 mm 0.00 in0.0 mm 0.00 in0.0 mm
08:35 AM 48.9°F9.4°C 45.8°F7.7°C 89% 1.8 mph W2.9 kmh W 9.0 mph14.5 kmh 30.12 in1020.0 mb 0.00 in0.0 mm 0.00 in0.0 mm 0.00 in0.0 mm
08:40 AM 48.9°F9.4°C 45.8°F7.7°C 89% 1.6 mph WNW2.6 kmh WNW 7.0 mph11.3 kmh 30.13 in1020.3 mb 0.00 in0.0 mm 0.00 in0.0 mm 0.00 in0.0 mm
08:45 AM 49.0°F9.4°C 45.6°F7.6°C 88% 2.9 mph WNW4.7 kmh WNW 11.0 mph17.7 kmh 30.13 in1020.3 mb 0.00 in0.0 mm 0.00 in0.0 mm 0.00 in0.0 mm
08:50 AM 49.0°F9.4°C 45.6°F7.6°C 88% 3.3 mph WNW5.3 kmh WNW 11.0 mph17.7 kmh 30.13 in1020.3 mb 0.00 in0.0 mm 0.00 in0.0 mm 0.00 in0.0 mm
08:56 AM 49.1°F9.5°C 45.7°F7.6°C 88% 1.0 mph WNW1.6 kmh WNW 11.0 mph17.7 kmh 30.14 in1020.7 mb 0.00 in0.0 mm 0.00 in0.0 mm 0.00 in0.0 mm
08:59 AM 49.2°F9.6°C 45.8°F7.7°C 88% 2.8 mph W4.5 kmh W 11.0 mph17.7 kmh 30.13 in1020.3 mb 0.00 in0.0 mm 0.00 in0.0 mm 0.00 in0.0 mm
09:04 AM 49.2°F9.6°C 45.5°F7.5°C 87% 3.1 mph W5.0 kmh W 8.0 mph12.9 kmh 30.14 in1020.7 mb 0.00 in0.0 mm 0.00 in0.0 mm 0.00 in0.0 mm
09:09 AM 49.2°F9.6°C 45.5°F7.5°C 87% 2.5 mph W4.0 kmh W 9.0 mph14.5 kmh 30.14 in1020.7 mb 0.00 in0.0 mm 0.00 in0.0 mm 0.00 in0.0 mm
09:14 AM 49.3°F9.6°C 45.6°F7.6°C 87% 3.8 mph W6.1 kmh W 9.0 mph14.5 kmh 30.14 in1020.7 mb 0.00 in0.0 mm 0.00 in0.0 mm 0.00 in0.0 mm
09:19 AM 49.3°F9.6°C 45.3°F7.4°C 86% 1.7 mph W2.7 kmh W 9.0 mph14.5 kmh 30.14 in1020.7 mb 0.00 in0.0 mm 0.00 in0.0 mm 0.00 in0.0 mm
09:24 AM 49.4°F9.7°C 45.4°F7.4°C 86% 2.1 mph W3.4 kmh W 9.0 mph14.5 kmh 30.14 in1020.7 mb 0.00 in0.0 mm 0.00 in0.0 mm 0.00 in0.0 mm
09:29 AM 49.4°F9.7°C 45.1°F7.3°C 85% 6.0 mph WNW9.7 kmh WNW 12.0 mph19.3 kmh 30.15 in1021.0 mb 0.00 in0.0 mm 0.00 in0.0 mm 0.00 in0.0 mm
09:34 AM 49.5°F9.7°C 45.2°F7.3°C 85% 7.5 mph WNW12.1 kmh WNW 13.0 mph20.9 kmh 30.15 in1021.0 mb 0.00 in0.0 mm 0.00 in0.0 mm 0.00 in0.0 mm
09:39 AM 49.5°F9.7°C 45.2°F7.3°C 85% 3.9 mph W6.3 kmh W 13.0 mph20.9 kmh 30.15 in1021.0 mb 0.00 in0.0 mm 0.00 in0.0 mm 0.00 in0.0 mm
09:44 AM 49.6°F9.8°C 45.3°F7.4°C 85% 5.5 mph WNW8.9 kmh WNW 13.0 mph20.9 kmh 30.15 in1021.0 mb 0.00 in0.0 mm 0.00 in0.0 mm 0.00 in0.0 mm
09:49 AM 49.7°F9.8°C 45.4°F7.4°C 85% 3.9 mph WNW6.3 kmh WNW 13.0 mph20.9 kmh 30.15 in1021.0 mb 0.00 in0.0 mm 0.00 in0.0 mm 0.00 in0.0 mm
09:54 AM 49.7°F9.8°C 45.4°F7.4°C 85% 1.7 mph W2.7 kmh W 13.0 mph20.9 kmh 30.15 in1021.0 mb 0.00 in0.0 mm 0.00 in0.0 mm 0.00 in0.0 mm
09:59 AM 49.7°F9.8°C 45.4°F7.4°C 85% 6.6 mph WNW10.6 kmh WNW 13.0 mph20.9 kmh 30.15 in1021.0 mb 0.00 in0.0 mm 0.00 in0.0 mm 0.00 in0.0 mm
10:04 AM 50.0°F10.0°C 45.7°F7.6°C 85% 3.2 mph W5.1 kmh W 12.0 mph19.3 kmh 30.15 in1021.0 mb 0.00 in0.0 mm 0.00 in0.0 mm 0.00 in0.0 mm
10:09 AM 50.3°F10.2°C 45.7°F7.6°C 84% 4.6 mph W7.4 kmh W 12.0 mph19.3 kmh 30.15 in1021.0 mb 0.00 in0.0 mm 0.00 in0.0 mm 0.00 in0.0 mm
10:14 AM 50.7°F10.4°C 46.0°F7.8°C 84% 2.2 mph W3.5 kmh W 12.0 mph19.3 kmh 30.15 in1021.0 mb 0.00 in0.0 mm 0.00 in0.0 mm 0.00 in0.0 mm
10:19 AM 50.9°F10.5°C 45.9°F7.7°C 83% 2.4 mph W3.9 kmh W 11.0 mph17.7 kmh 30.15 in1021.0 mb 0.00 in0.0 mm 0.00 in0.0 mm 0.00 in0.0 mm
10:24 AM 51.0°F10.6°C 45.7°F7.6°C 82% 5.4 mph WNW8.7 kmh WNW 11.0 mph17.7 kmh 30.15 in1021.0 mb 0.00 in0.0 mm 0.00 in0.0 mm 0.00 in0.0 mm
10:29 AM 51.2°F10.7°C 45.9°F7.7°C 82% 5.0 mph WNW8.0 kmh WNW 11.0 mph17.7 kmh 30.15 in1021.0 mb 0.00 in0.0 mm 0.00 in0.0 mm 0.00 in0.0 mm
10:35 AM 51.4°F10.8°C 45.8°F7.7°C 81% 5.1 mph W8.2 kmh W 11.0 mph17.7 kmh 30.15 in1021.0 mb 0.00 in0.0 mm 0.00 in0.0 mm 0.00 in0.0 mm
10:40 AM 51.4°F10.8°C 45.8°F7.7°C 81% 7.2 mph WNW11.6 kmh WNW 15.0 mph24.1 kmh 30.15 in1021.0 mb 0.00 in0.0 mm 0.00 in0.0 mm 0.00 in0.0 mm
10:45 AM 51.4°F10.8°C 45.8°F7.7°C 81% 3.9 mph WNW6.3 kmh WNW 15.0 mph24.1 kmh 30.15 in1021.0 mb 0.00 in0.0 mm 0.00 in0.0 mm 0.00 in0.0 mm
10:50 AM 51.6°F10.9°C 46.3°F7.9°C 82% 3.9 mph W6.3 kmh W 15.0 mph24.1 kmh 30.15 in1021.0 mb 0.00 in0.0 mm 0.00 in0.0 mm 0.00 in0.0 mm
10:55 AM 51.7°F10.9°C 46.1°F7.8°C 81% 1.9 mph WNW3.1 kmh WNW 15.0 mph24.1 kmh 30.15 in1021.0 mb 0.00 in0.0 mm 0.00 in0.0 mm 0.00 in0.0 mm
11:00 AM 51.7°F10.9°C 46.1°F7.8°C 81% 3.5 mph WNW5.6 kmh WNW 11.0 mph17.7 kmh 30.15 in1021.0 mb 0.00 in0.0 mm 0.00 in0.0 mm 0.00 in0.0 mm
11:05 AM 51.6°F10.9°C 46.0°F7.8°C 81% 4.0 mph W6.4 kmh W 10.0 mph16.1 kmh 30.15 in1021.0 mb 0.00 in0.0 mm 0.00 in0.0 mm 0.00 in0.0 mm
11:10 AM 51.6°F10.9°C 46.0°F7.8°C 81% 3.7 mph WNW6.0 kmh WNW 12.0 mph19.3 kmh 30.15 in1021.0 mb 0.00 in0.0 mm 0.00 in0.0 mm 0.00 in0.0 mm
11:15 AM 51.7°F10.9°C 46.1°F7.8°C 81% 4.3 mph WNW6.9 kmh WNW 12.0 mph19.3 kmh 30.15 in1021.0 mb 0.00 in0.0 mm 0.00 in0.0 mm 0.00 in0.0 mm
11:20 AM 51.8°F11.0°C 46.2°F7.9°C 81% 5.0 mph W8.0 kmh W 12.0 mph19.3 kmh 30.15 in1021.0 mb 0.00 in0.0 mm 0.00 in0.0 mm 0.00 in0.0 mm
11:25 AM 51.7°F10.9°C 46.1°F7.8°C 81% 4.6 mph WNW7.4 kmh WNW 12.0 mph19.3 kmh 30.14 in1020.7 mb 0.00 in0.0 mm 0.00 in0.0 mm 0.00 in0.0 mm
11:30 AM 51.7°F10.9°C 46.1°F7.8°C 81% 3.5 mph WNW5.6 kmh WNW 11.0 mph17.7 kmh 30.15 in1021.0 mb 0.00 in0.0 mm 0.00 in0.0 mm 0.00 in0.0 mm
11:35 AM 51.6°F10.9°C 46.0°F7.8°C 81% 3.6 mph NW5.8 kmh NW 11.0 mph17.7 kmh 30.14 in1020.7 mb 0.00 in0.0 mm 0.00 in0.0 mm 0.00 in0.0 mm
11:40 AM 51.6°F10.9°C 45.6°F7.6°C 80% 7.1 mph W11.4 kmh W 14.0 mph22.5 kmh 30.14 in1020.7 mb 0.00 in0.0 mm 0.00 in0.0 mm 0.00 in0.0 mm
11:45 AM 51.5°F10.8°C 45.6°F7.6°C 80% 7.9 mph WNW12.7 kmh WNW 16.0 mph25.7 kmh 30.14 in1020.7 mb 0.00 in0.0 mm 0.00 in0.0 mm 0.00 in0.0 mm
11:50 AM 51.5°F10.8°C 45.9°F7.7°C 81% 5.7 mph W9.2 kmh W 16.0 mph25.7 kmh 30.14 in1020.7 mb 0.00 in0.0 mm 0.00 in0.0 mm 0.00 in0.0 mm
11:55 AM 51.5°F10.8°C 45.9°F7.7°C 81% 5.6 mph WNW9.0 kmh WNW 16.0 mph25.7 kmh 30.14 in1020.7 mb 0.00 in0.0 mm 0.00 in0.0 mm 0.00 in0.0 mm
12:00 PM 51.5°F10.8°C 46.2°F7.9°C 82% 5.9 mph NW9.5 kmh NW 16.0 mph25.7 kmh 30.13 in1020.3 mb 0.00 in0.0 mm 0.00 in0.0 mm 0.00 in0.0 mm
12:05 PM 51.6°F10.9°C 46.0°F7.8°C 81% 2.6 mph W4.2 kmh W 15.0 mph24.1 kmh 30.13 in1020.3 mb 0.00 in0.0 mm 0.00 in0.0 mm 0.00 in0.0 mm
12:10 PM 51.7°F10.9°C 46.1°F7.8°C 81% 3.2 mph WNW5.1 kmh WNW 12.0 mph19.3 kmh 30.12 in1020.0 mb 0.00 in0.0 mm 0.00 in0.0 mm 0.00 in0.0 mm
12:15 PM 51.9°F11.1°C 46.3°F7.9°C 81% 1.9 mph WNW3.1 kmh WNW 12.0 mph19.3 kmh 30.12 in1020.0 mb 0.00 in0.0 mm 0.00 in0.0 mm 0.00 in0.0 mm
12:20 PM 52.0°F11.1°C 46.4°F8.0°C 81% 3.3 mph W5.3 kmh W 12.0 mph19.3 kmh 30.12 in1020.0 mb 0.00 in0.0 mm 0.00 in0.0 mm 0.00 in0.0 mm
12:25 PM 52.0°F11.1°C 46.4°F8.0°C 81% 5.2 mph WNW8.4 kmh WNW 12.0 mph19.3 kmh 30.12 in1020.0 mb 0.00 in0.0 mm 0.00 in0.0 mm 0.00 in0.0 mm
12:30 PM 52.0°F11.1°C 46.0°F7.8°C 80% 6.5 mph W10.5 kmh W 12.0 mph19.3 kmh 30.11 in1019.6 mb 0.00 in0.0 mm 0.00 in0.0 mm 0.00 in0.0 mm
12:35 PM 52.2°F11.2°C 46.5°F8.1°C 81% 3.1 mph W5.0 kmh W 12.0 mph19.3 kmh 30.11 in1019.6 mb 0.00 in0.0 mm 0.00 in0.0 mm 0.00 in0.0 mm
12:40 PM 52.4°F11.3°C 46.4°F8.0°C 80% 4.6 mph W7.4 kmh W 14.0 mph22.5 kmh 30.11 in1019.6 mb 0.00 in0.0 mm 0.00 in0.0 mm 0.00 in0.0 mm
12:45 PM 52.5°F11.4°C 46.2°F7.9°C 79% 3.3 mph W5.3 kmh W 14.0 mph22.5 kmh 30.11 in1019.6 mb 0.00 in0.0 mm 0.00 in0.0 mm 0.00 in0.0 mm
12:50 PM 52.6°F11.4°C 46.3°F7.9°C 79% 6.2 mph WNW10.0 kmh WNW 14.0 mph22.5 kmh 30.11 in1019.6 mb 0.00 in0.0 mm 0.00 in0.0 mm 0.00 in0.0 mm
12:55 PM 52.6°F11.4°C 46.3°F7.9°C 79% 4.3 mph WNW6.9 kmh WNW 13.0 mph20.9 kmh 30.10 in1019.3 mb 0.00 in0.0 mm 0.00 in0.0 mm 0.00 in0.0 mm
01:00 PM 52.7°F11.5°C 46.4°F8.0°C 79% 1.6 mph W2.6 kmh W 11.0 mph17.7 kmh 30.10 in1019.3 mb 0.00 in0.0 mm 0.00 in0.0 mm 0.00 in0.0 mm
01:05 PM 52.9°F11.6°C 46.3°F7.9°C 78% 4.7 mph WNW7.6 kmh WNW 11.0 mph17.7 kmh 30.10 in1019.3 mb 0.00 in0.0 mm 0.00 in0.0 mm 0.00 in0.0 mm
01:10 PM 53.2°F11.8°C 46.9°F8.3°C 79% 6.4 mph W10.3 kmh W 10.0 mph16.1 kmh 30.10 in1019.3 mb 0.00 in0.0 mm 0.00 in0.0 mm 0.00 in0.0 mm
01:15 PM 53.4°F11.9°C 46.4°F8.0°C 77% 5.9 mph W9.5 kmh W 11.0 mph17.7 kmh 30.10 in1019.3 mb 0.00 in0.0 mm 0.00 in0.0 mm 0.00 in0.0 mm
01:20 PM 53.6°F12.0°C 46.6°F8.1°C 77% 2.8 mph W4.5 kmh W 11.0 mph17.7 kmh 30.10 in1019.3 mb 0.00 in0.0 mm 0.00 in0.0 mm 0.00 in0.0 mm
01:25 PM 53.4°F11.9°C 46.4°F8.0°C 77% 5.5 mph W8.9 kmh W 14.0 mph22.5 kmh 30.10 in1019.3 mb 0.00 in0.0 mm 0.00 in0.0 mm 0.00 in0.0 mm
01:30 PM 53.5°F11.9°C 46.5°F8.1°C 77% 3.1 mph W5.0 kmh W 14.0 mph22.5 kmh 30.10 in1019.3 mb 0.00 in0.0 mm 0.00 in0.0 mm 0.00 in0.0 mm
01:35 PM 54.0°F12.2°C 46.6°F8.1°C 76% 4.0 mph WNW6.4 kmh WNW 14.0 mph22.5 kmh 30.10 in1019.3 mb 0.00 in0.0 mm 0.00 in0.0 mm 0.00 in0.0 mm
01:40 PM 54.6°F12.6°C 47.6°F8.7°C 77% 1.9 mph NW3.1 kmh NW 14.0 mph22.5 kmh 30.09 in1019.0 mb 0.00 in0.0 mm 0.00 in0.0 mm 0.00 in0.0 mm
01:45 PM 55.3°F12.9°C 47.5°F8.6°C 75% 1.7 mph NW2.7 kmh NW 11.0 mph17.7 kmh 30.09 in1019.0 mb 0.00 in0.0 mm 0.00 in0.0 mm 0.00 in0.0 mm
01:50 PM 54.7°F12.6°C 46.6°F8.1°C 74% 2.9 mph WNW4.7 kmh WNW 11.0 mph17.7 kmh 30.09 in1019.0 mb 0.00 in0.0 mm 0.00 in0.0 mm 0.00 in0.0 mm
01:55 PM 54.4°F12.4°C 46.7°F8.2°C 75% 2.5 mph WNW4.0 kmh WNW 11.0 mph17.7 kmh 30.09 in1019.0 mb 0.00 in0.0 mm 0.00 in0.0 mm 0.00 in0.0 mm
01:59 PM 54.2°F12.3°C 46.5°F8.1°C 75% 7.3 mph WNW11.7 kmh WNW 15.0 mph24.1 kmh 30.09 in1019.0 mb 0.00 in0.0 mm 0.00 in0.0 mm 0.00 in0.0 mm
02:04 PM 53.7°F12.1°C 46.4°F8.0°C 76% 7.0 mph W11.3 kmh W 15.0 mph24.1 kmh 30.09 in1019.0 mb 0.00 in0.0 mm 0.00 in0.0 mm 0.00 in0.0 mm
02:09 PM 53.6°F12.0°C 46.6°F8.1°C 77% 4.0 mph W6.4 kmh W 15.0 mph24.1 kmh 30.09 in1019.0 mb 0.00 in0.0 mm 0.00 in0.0 mm 0.00 in0.0 mm
02:14 PM 53.5°F11.9°C 46.2°F7.9°C 76% 5.6 mph NW9.0 kmh NW 15.0 mph24.1 kmh 30.09 in1019.0 mb 0.00 in0.0 mm 0.00 in0.0 mm 0.00 in0.0 mm
02:19 PM 53.7°F12.1°C 46.7°F8.2°C 77% 4.2 mph NW6.8 kmh NW 15.0 mph24.1 kmh 30.09 in1019.0 mb 0.00 in0.0 mm 0.00 in0.0 mm 0.00 in0.0 mm
02:24 PM 53.9°F12.2°C 46.6°F8.1°C 76% 3.9 mph NW6.3 kmh NW 10.0 mph16.1 kmh 30.09 in1019.0 mb 0.00 in0.0 mm 0.00 in0.0 mm 0.00 in0.0 mm
02:29 PM 54.1°F12.3°C 46.8°F8.2°C 76% 4.0 mph NW6.4 kmh NW 10.0 mph16.1 kmh 30.09 in1019.0 mb 0.00 in0.0 mm 0.00 in0.0 mm 0.00 in0.0 mm
02:34 PM 54.3°F12.4°C 46.2°F7.9°C 74% 3.5 mph NW5.6 kmh NW 11.0 mph17.7 kmh 30.09 in1019.0 mb 0.00 in0.0 mm 0.00 in0.0 mm 0.00 in0.0 mm
02:39 PM 54.2°F12.3°C 45.4°F7.4°C 72% 3.9 mph WNW6.3 kmh WNW 13.0 mph20.9 kmh 30.09 in1019.0 mb 0.00 in0.0 mm 0.00 in0.0 mm 0.00 in0.0 mm
02:44 PM 54.3°F12.4°C 45.9°F7.7°C 73% 3.9 mph W6.3 kmh W 13.0 mph20.9 kmh 30.09 in1019.0 mb 0.00 in0.0 mm 0.00 in0.0 mm 0.00 in0.0 mm
02:49 PM 54.3°F12.4°C 45.9°F7.7°C 73% 4.5 mph NW7.2 kmh NW 13.0 mph20.9 kmh 30.09 in1019.0 mb 0.00 in0.0 mm 0.00 in0.0 mm 0.00 in0.0 mm
02:54 PM 54.4°F12.4°C 46.0°F7.8°C 73% 3.6 mph WNW5.8 kmh WNW 13.0 mph20.9 kmh 30.09 in1019.0 mb 0.00 in0.0 mm 0.00 in0.0 mm 0.00 in0.0 mm
02:59 PM 54.3°F12.4°C 46.3°F7.9°C 74% 3.3 mph NW5.3 kmh NW 12.0 mph19.3 kmh 30.09 in1019.0 mb 0.00 in0.0 mm 0.00 in0.0 mm 0.00 in0.0 mm
03:04 PM 54.3°F12.4°C 46.3°F7.9°C 74% 3.5 mph NW5.6 kmh NW 12.0 mph19.3 kmh 30.09 in1019.0 mb 0.00 in0.0 mm 0.00 in0.0 mm 0.00 in0.0 mm
03:09 PM 54.5°F12.5°C 46.5°F8.1°C 74% 3.3 mph NW5.3 kmh NW 12.0 mph19.3 kmh 30.09 in1019.0 mb 0.00 in0.0 mm 0.00 in0.0 mm 0.00 in0.0 mm
03:14 PM 54.4°F12.4°C 46.3°F7.9°C 74% 4.0 mph NW6.4 kmh NW 12.0 mph19.3 kmh 30.09 in1019.0 mb 0.00 in0.0 mm 0.00 in0.0 mm 0.00 in0.0 mm
03:19 PM 54.4°F12.4°C 46.4°F8.0°C 74% 2.8 mph W4.5 kmh W 13.0 mph20.9 kmh 30.09 in1019.0 mb 0.00 in0.0 mm 0.00 in0.0 mm 0.00 in0.0 mm
03:24 PM 54.4°F12.4°C 46.4°F8.0°C 74% 6.0 mph NW9.7 kmh NW 13.0 mph20.9 kmh 30.09 in1019.0 mb 0.00 in0.0 mm 0.00 in0.0 mm 0.00 in0.0 mm
03:29 PM 54.2°F12.3°C 46.1°F7.8°C 74% 6.0 mph NW9.7 kmh NW 13.0 mph20.9 kmh 30.09 in1019.0 mb 0.00 in0.0 mm 0.00 in0.0 mm 0.00 in0.0 mm
03:34 PM 54.2°F12.3°C 46.5°F8.1°C 75% 2.3 mph NW3.7 kmh NW 13.0 mph20.9 kmh 30.09 in1019.0 mb 0.00 in0.0 mm 0.00 in0.0 mm 0.00 in0.0 mm
03:39 PM 54.3°F12.4°C 46.6°F8.1°C 75% 4.5 mph WNW7.2 kmh WNW 13.0 mph20.9 kmh 30.10 in1019.3 mb 0.00 in0.0 mm 0.00 in0.0 mm 0.00 in0.0 mm
03:44 PM 54.3°F12.4°C 47.0°F8.3°C 76% 1.9 mph WNW3.1 kmh WNW 13.0 mph20.9 kmh 30.10 in1019.3 mb 0.00 in0.0 mm 0.00 in0.0 mm 0.00 in0.0 mm
03:49 PM 54.3°F12.4°C 46.6°F8.1°C 75% 2.8 mph WNW4.5 kmh WNW 10.0 mph16.1 kmh 30.10 in1019.3 mb 0.00 in0.0 mm 0.00 in0.0 mm 0.00 in0.0 mm
03:54 PM 54.5°F12.5°C 47.2°F8.4°C 76% 2.7 mph NW4.3 kmh NW 10.0 mph16.1 kmh 30.10 in1019.3 mb 0.00 in0.0 mm 0.00 in0.0 mm 0.00 in0.0 mm
03:59 PM 55.1°F12.8°C 47.3°F8.5°C 75% 6.3 mph W10.1 kmh W 12.0 mph19.3 kmh 30.09 in1019.0 mb 0.00 in0.0 mm 0.00 in0.0 mm 0.00 in0.0 mm
04:04 PM 54.7°F12.6°C 46.7°F8.2°C 74% 6.0 mph WNW9.7 kmh WNW 13.0 mph20.9 kmh 30.10 in1019.3 mb 0.00 in0.0 mm 0.00 in0.0 mm 0.00 in0.0 mm
04:09 PM 54.6°F12.6°C 46.9°F8.3°C 75% 4.2 mph WNW6.8 kmh WNW 13.0 mph20.9 kmh 30.10 in1019.3 mb 0.00 in0.0 mm 0.00 in0.0 mm 0.00 in0.0 mm
04:14 PM 54.7°F12.6°C 47.0°F8.3°C 75% 1.9 mph WNW3.1 kmh WNW 13.0 mph20.9 kmh 30.11 in1019.6 mb 0.00 in0.0 mm 0.00 in0.0 mm 0.00 in0.0 mm
04:19 PM 54.7°F12.6°C 47.4°F8.6°C 76% 3.8 mph WNW6.1 kmh WNW 13.0 mph20.9 kmh 30.11 in1019.6 mb 0.00 in0.0 mm 0.00 in0.0 mm 0.00 in0.0 mm
04:24 PM 54.7°F12.6°C 47.4°F8.6°C 76% 2.7 mph WNW4.3 kmh WNW 9.0 mph14.5 kmh 30.11 in1019.6 mb 0.00 in0.0 mm 0.00 in0.0 mm 0.00 in0.0 mm
04:29 PM 54.5°F12.5°C 47.1°F8.4°C 76% 2.3 mph W3.7 kmh W 9.0 mph14.5 kmh 30.11 in1019.6 mb 0.00 in0.0 mm 0.00 in0.0 mm 0.00 in0.0 mm
04:34 PM 54.5°F12.5°C 47.2°F8.4°C 76% 3.3 mph W5.3 kmh W 10.0 mph16.1 kmh 30.12 in1020.0 mb 0.00 in0.0 mm 0.00 in0.0 mm 0.00 in0.0 mm
04:39 PM 54.5°F12.5°C 47.5°F8.6°C 77% 2.0 mph W3.2 kmh W 10.0 mph16.1 kmh 30.12 in1020.0 mb 0.00 in0.0 mm 0.00 in0.0 mm 0.00 in0.0 mm
04:44 PM 54.4°F12.4°C 47.3°F8.5°C 77% 3.0 mph W4.8 kmh W 12.0 mph19.3 kmh 30.12 in1020.0 mb 0.00 in0.0 mm 0.00 in0.0 mm 0.00 in0.0 mm
04:49 PM 54.3°F12.4°C 46.6°F8.1°C 75% 6.7 mph WNW10.8 kmh WNW 14.0 mph22.5 kmh 30.12 in1020.0 mb 0.00 in0.0 mm 0.00 in0.0 mm 0.00 in0.0 mm
04:54 PM 54.2°F12.3°C 46.5°F8.1°C 75% 4.6 mph NW7.4 kmh NW 14.0 mph22.5 kmh 30.13 in1020.3 mb 0.00 in0.0 mm 0.00 in0.0 mm 0.00 in0.0 mm
04:59 PM 54.2°F12.3°C 46.4°F8.0°C 75% 3.5 mph WNW5.6 kmh WNW 14.0 mph22.5 kmh 30.12 in1020.0 mb 0.00 in0.0 mm 0.00 in0.0 mm 0.00 in0.0 mm
05:04 PM 54.1°F12.3°C 46.8°F8.2°C 76% 2.4 mph NW3.9 kmh NW 14.0 mph22.5 kmh 30.12 in1020.0 mb 0.00 in0.0 mm 0.00 in0.0 mm 0.00 in0.0 mm
05:09 PM 53.9°F12.2°C 46.2°F7.9°C 75% 3.4 mph WNW5.5 kmh WNW 14.0 mph22.5 kmh 30.12 in1020.0 mb 0.00 in0.0 mm 0.00 in0.0 mm 0.00 in0.0 mm
05:14 PM 53.8°F12.1°C 46.5°F8.1°C 76% 1.0 mph WNW1.6 kmh WNW 9.0 mph14.5 kmh 30.12 in1020.0 mb 0.00 in0.0 mm 0.00 in0.0 mm 0.00 in0.0 mm
05:19 PM 53.6°F12.0°C 46.6°F8.1°C 77% 2.1 mph NW3.4 kmh NW 9.0 mph14.5 kmh 30.12 in1020.0 mb 0.00 in0.0 mm 0.00 in0.0 mm 0.00 in0.0 mm
05:24 PM 53.6°F12.0°C 46.6°F8.1°C 77% 1.4 mph WNW2.3 kmh WNW 9.0 mph14.5 kmh 30.12 in1020.0 mb 0.00 in0.0 mm 0.00 in0.0 mm 0.00 in0.0 mm
05:29 PM 53.4°F11.9°C 46.7°F8.2°C 78% 1.3 mph NW2.1 kmh NW 5.0 mph8.0 kmh 30.12 in1020.0 mb 0.00 in0.0 mm 0.00 in0.0 mm 0.00 in0.0 mm
05:34 PM 53.3°F11.8°C 46.6°F8.1°C 78% 4.5 mph WNW7.2 kmh WNW 11.0 mph17.7 kmh 30.12 in1020.0 mb 0.00 in0.0 mm 0.00 in0.0 mm 0.00 in0.0 mm
05:39 PM 53.2°F11.8°C 46.6°F8.1°C 78% 2.3 mph WNW3.7 kmh WNW 11.0 mph17.7 kmh 30.11 in1019.6 mb 0.00 in0.0 mm 0.00 in0.0 mm 0.00 in0.0 mm
05:44 PM 53.2°F11.8°C 46.9°F8.3°C 79% 3.3 mph NW5.3 kmh NW 11.0 mph17.7 kmh 30.11 in1019.6 mb 0.00 in0.0 mm 0.00 in0.0 mm 0.00 in0.0 mm
05:49 PM 53.2°F11.8°C 46.9°F8.3°C 79% 1.1 mph WNW1.8 kmh WNW 11.0 mph17.7 kmh 30.11 in1019.6 mb 0.00 in0.0 mm 0.00 in0.0 mm 0.00 in0.0 mm
05:54 PM 53.1°F11.7°C 46.8°F8.2°C 79% 1.2 mph NW1.9 kmh NW 8.0 mph12.9 kmh 30.11 in1019.6 mb 0.00 in0.0 mm 0.00 in0.0 mm 0.00 in0.0 mm
05:59 PM 53.0°F11.7°C 46.7°F8.2°C 79% 2.4 mph WNW3.9 kmh WNW 8.0 mph12.9 kmh 30.11 in1019.6 mb 0.00 in0.0 mm 0.00 in0.0 mm 0.00 in0.0 mm
06:04 PM 53.0°F11.7°C 46.7°F8.2°C 79% 3.4 mph WNW5.5 kmh WNW 8.0 mph12.9 kmh 30.11 in1019.6 mb 0.00 in0.0 mm 0.00 in0.0 mm 0.00 in0.0 mm
06:09 PM 52.9°F11.6°C 46.9°F8.3°C 80% 4.2 mph WNW6.8 kmh WNW 8.0 mph12.9 kmh 30.12 in1020.0 mb 0.00 in0.0 mm 0.00 in0.0 mm 0.00 in0.0 mm
06:14 PM 52.7°F11.5°C 46.7°F8.2°C 80% 2.2 mph NW3.5 kmh NW 8.0 mph12.9 kmh 30.12 in1020.0 mb 0.00 in0.0 mm 0.00 in0.0 mm 0.00 in0.0 mm
06:19 PM 52.6°F11.4°C 46.6°F8.1°C 80% 3.2 mph WNW5.1 kmh WNW 8.0 mph12.9 kmh 30.12 in1020.0 mb 0.00 in0.0 mm 0.00 in0.0 mm 0.00 in0.0 mm
06:24 PM 52.5°F11.4°C 46.8°F8.2°C 81% 1.2 mph WNW1.9 kmh WNW 8.0 mph12.9 kmh 30.12 in1020.0 mb 0.00 in0.0 mm 0.00 in0.0 mm 0.00 in0.0 mm
06:29 PM 52.4°F11.3°C 46.8°F8.2°C 81% 1.0 mph WNW1.6 kmh WNW 8.0 mph12.9 kmh 30.12 in1020.0 mb 0.00 in0.0 mm 0.00 in0.0 mm 0.00 in0.0 mm
06:34 PM 52.3°F11.3°C 46.7°F8.2°C 81% 2.4 mph WNW3.9 kmh WNW 8.0 mph12.9 kmh 30.12 in1020.0 mb 0.00 in0.0 mm 0.00 in0.0 mm 0.00 in0.0 mm
06:39 PM 52.2°F11.2°C 46.9°F8.3°C 82% 1.2 mph NW1.9 kmh NW 7.0 mph11.3 kmh 30.12 in1020.0 mb 0.00 in0.0 mm 0.00 in0.0 mm 0.00 in0.0 mm
06:44 PM 52.3°F11.3°C 46.6°F8.1°C 81% 5.4 mph WNW8.7 kmh WNW 13.0 mph20.9 kmh 30.12 in1020.0 mb 0.00 in0.0 mm 0.00 in0.0 mm 0.00 in0.0 mm
06:49 PM 52.3°F11.3°C 46.6°F8.1°C 81% 1.7 mph NW2.7 kmh NW 13.0 mph20.9 kmh 30.12 in1020.0 mb 0.00 in0.0 mm 0.00 in0.0 mm 0.00 in0.0 mm
06:54 PM 52.3°F11.3°C 46.7°F8.2°C 81% 1.1 mph WNW1.8 kmh WNW 13.0 mph20.9 kmh 30.12 in1020.0 mb 0.00 in0.0 mm 0.00 in0.0 mm 0.00 in0.0 mm
06:58 PM 52.2°F11.2°C 46.9°F8.3°C 82% 1.7 mph WNW2.7 kmh WNW 13.0 mph20.9 kmh 30.12 in1020.0 mb 0.00 in0.0 mm 0.00 in0.0 mm 0.00 in0.0 mm
07:03 PM 52.1°F11.2°C 46.8°F8.2°C 82% 2.2 mph WNW3.5 kmh WNW 6.0 mph9.7 kmh 30.12 in1020.0 mb 0.00 in0.0 mm 0.00 in0.0 mm 0.00 in0.0 mm
07:08 PM 51.9°F11.1°C 46.6°F8.1°C 82% 1.5 mph WNW2.4 kmh WNW 5.0 mph8.0 kmh 30.12 in1020.0 mb 0.00 in0.0 mm 0.00 in0.0 mm 0.00 in0.0 mm
07:13 PM 51.7°F10.9°C 46.4°F8.0°C 82% 1.3 mph W2.1 kmh W 5.0 mph8.0 kmh 30.12 in1020.0 mb 0.00 in0.0 mm 0.00 in0.0 mm 0.00 in0.0 mm
07:18 PM 51.7°F10.9°C 46.4°F8.0°C 82% 1.8 mph W2.9 kmh W 11.0 mph17.7 kmh 30.12 in1020.0 mb 0.00 in0.0 mm 0.00 in0.0 mm 0.00 in0.0 mm
07:23 PM 51.6°F10.9°C 46.6°F8.1°C 83% 3.1 mph WNW5.0 kmh WNW 11.0 mph17.7 kmh 30.12 in1020.0 mb 0.00 in0.0 mm 0.00 in0.0 mm 0.00 in0.0 mm
07:28 PM 51.5°F10.8°C 46.5°F8.1°C 83% 2.3 mph WNW3.7 kmh WNW 11.0 mph17.7 kmh 30.12 in1020.0 mb 0.00 in0.0 mm 0.00 in0.0 mm 0.00 in0.0 mm
07:33 PM 51.3°F10.7°C 46.3°F7.9°C 83% 2.2 mph WNW3.5 kmh WNW 11.0 mph17.7 kmh 30.13 in1020.3 mb 0.00 in0.0 mm 0.00 in0.0 mm 0.00 in0.0 mm
07:38 PM 51.1°F10.6°C 46.4°F8.0°C 84% 1.9 mph W3.1 kmh W 7.0 mph11.3 kmh 30.13 in1020.3 mb 0.00 in0.0 mm 0.00 in0.0 mm 0.00 in0.0 mm
07:43 PM 51.0°F10.6°C 46.3°F7.9°C 84% 1.6 mph WNW2.6 kmh WNW 7.0 mph11.3 kmh 30.13 in1020.3 mb 0.00 in0.0 mm 0.00 in0.0 mm 0.00 in0.0 mm
07:48 PM 50.9°F10.5°C 46.2°F7.9°C 84% 4.3 mph WNW6.9 kmh WNW 11.0 mph17.7 kmh 30.14 in1020.7 mb 0.00 in0.0 mm 0.00 in0.0 mm 0.00 in0.0 mm
07:54 PM 50.9°F10.5°C 46.2°F7.9°C 84% 1.0 mph W1.6 kmh W 11.0 mph17.7 kmh 30.14 in1020.7 mb 0.00 in0.0 mm 0.00 in0.0 mm 0.00 in0.0 mm
08:00 PM 50.9°F10.5°C 46.2°F7.9°C 84% 5.0 mph W8.0 kmh W 11.0 mph17.7 kmh 30.14 in1020.7 mb 0.00 in0.0 mm 0.00 in0.0 mm 0.00 in0.0 mm
08:05 PM 50.7°F10.4°C 46.0°F7.8°C 84% 3.0 mph WNW4.8 kmh WNW 11.0 mph17.7 kmh 30.14 in1020.7 mb 0.00 in0.0 mm 0.00 in0.0 mm 0.00 in0.0 mm
08:10 PM 50.6°F10.3°C 45.9°F7.7°C 84% 2.0 mph WNW3.2 kmh WNW 8.0 mph12.9 kmh 30.14 in1020.7 mb 0.00 in0.0 mm 0.00 in0.0 mm 0.00 in0.0 mm
08:15 PM 50.4°F10.2°C 46.1°F7.8°C 85% 1.1 mph WNW1.8 kmh WNW 8.0 mph12.9 kmh 30.14 in1020.7 mb 0.00 in0.0 mm 0.00 in0.0 mm 0.00 in0.0 mm
08:20 PM 50.3°F10.2°C 46.0°F7.8°C 85% 1.5 mph WNW2.4 kmh WNW 8.0 mph12.9 kmh 30.14 in1020.7 mb 0.00 in0.0 mm 0.00 in0.0 mm 0.00 in0.0 mm
08:25 PM 50.1°F10.1°C 45.8°F7.7°C 85% 1.2 mph WNW1.9 kmh WNW 5.0 mph8.0 kmh 30.15 in1021.0 mb 0.00 in0.0 mm 0.00 in0.0 mm 0.00 in0.0 mm
08:30 PM 50.1°F10.1°C 45.8°F7.7°C 85% 2.4 mph W3.9 kmh W 6.0 mph9.7 kmh 30.15 in1021.0 mb 0.00 in0.0 mm 0.00 in0.0 mm 0.00 in0.0 mm
08:35 PM 50.0°F10.0°C 45.7°F7.6°C 85% 1.8 mph WNW2.9 kmh WNW 6.0 mph9.7 kmh 30.15 in1021.0 mb 0.00 in0.0 mm 0.00 in0.0 mm 0.00 in0.0 mm
08:40 PM 50.0°F10.0°C 46.0°F7.8°C 86% 3.0 mph WNW4.8 kmh WNW 8.0 mph12.9 kmh 30.15 in1021.0 mb 0.00 in0.0 mm 0.00 in0.0 mm 0.00 in0.0 mm
08:45 PM 49.9°F9.9°C 45.9°F7.7°C 86% 4.1 mph WNW6.6 kmh WNW 11.0 mph17.7 kmh 30.14 in1020.7 mb 0.00 in0.0 mm 0.00 in0.0 mm 0.00 in0.0 mm
08:50 PM 49.8°F9.9°C 45.8°F7.7°C 86% 2.3 mph NW3.7 kmh NW 11.0 mph17.7 kmh 30.14 in1020.7 mb 0.00 in0.0 mm 0.00 in0.0 mm 0.00 in0.0 mm
08:55 PM 49.7°F9.8°C 45.7°F7.6°C 86% 1.8 mph WNW2.9 kmh WNW 11.0 mph17.7 kmh 30.14 in1020.7 mb 0.00 in0.0 mm 0.00 in0.0 mm 0.00 in0.0 mm
09:00 PM 49.5°F9.7°C 45.5°F7.5°C 86% 1.9 mph WNW3.1 kmh WNW 11.0 mph17.7 kmh 30.14 in1020.7 mb 0.00 in0.0 mm 0.00 in0.0 mm 0.00 in0.0 mm
09:05 PM 49.4°F9.7°C 45.7°F7.6°C 87% 3.5 mph NW5.6 kmh NW 7.0 mph11.3 kmh 30.14 in1020.7 mb 0.00 in0.0 mm 0.00 in0.0 mm 0.00 in0.0 mm
09:10 PM 49.4°F9.7°C 45.7°F7.6°C 87% 2.2 mph WNW3.5 kmh WNW 7.0 mph11.3 kmh 30.14 in1020.7 mb 0.00 in0.0 mm 0.00 in0.0 mm 0.00 in0.0 mm
09:15 PM 49.3°F9.6°C 45.6°F7.6°C 87% 3.2 mph NW5.1 kmh NW 7.0 mph11.3 kmh 30.14 in1020.7 mb 0.00 in0.0 mm 0.00 in0.0 mm 0.00 in0.0 mm
09:20 PM 49.4°F9.7°C 45.7°F7.6°C 87% 2.4 mph NW3.9 kmh NW 9.0 mph14.5 kmh 30.14 in1020.7 mb 0.00 in0.0 mm 0.00 in0.0 mm 0.00 in0.0 mm
09:25 PM 49.3°F9.6°C 45.6°F7.6°C 87% 3.1 mph NW5.0 kmh NW 9.0 mph14.5 kmh 30.14 in1020.7 mb 0.00 in0.0 mm 0.00 in0.0 mm 0.00 in0.0 mm
09:30 PM 49.4°F9.7°C 45.7°F7.6°C 87% 2.3 mph WNW3.7 kmh WNW 10.0 mph16.1 kmh 30.14 in1020.7 mb 0.00 in0.0 mm 0.00 in0.0 mm 0.00 in0.0 mm
09:35 PM 49.3°F9.6°C 45.6°F7.6°C 87% 2.7 mph NW4.3 kmh NW 10.0 mph16.1 kmh 30.14 in1020.7 mb 0.00 in0.0 mm 0.00 in0.0 mm 0.00 in0.0 mm
09:40 PM 49.2°F9.6°C 45.5°F7.5°C 87% 3.3 mph NW5.3 kmh NW 10.0 mph16.1 kmh 30.14 in1020.7 mb 0.00 in0.0 mm 0.00 in0.0 mm 0.00 in0.0 mm
09:45 PM 49.2°F9.6°C 45.5°F7.5°C 87% 4.0 mph NW6.4 kmh NW 13.0 mph20.9 kmh 30.14 in1020.7 mb 0.00 in0.0 mm 0.00 in0.0 mm 0.00 in0.0 mm
09:50 PM 49.1°F9.5°C 45.4°F7.4°C 87% 2.3 mph NW3.7 kmh NW 13.0 mph20.9 kmh 30.14 in1020.7 mb 0.00 in0.0 mm 0.00 in0.0 mm 0.00 in0.0 mm
09:55 PM 49.1°F9.5°C 45.7°F7.6°C 88% 4.3 mph NW6.9 kmh NW 13.0 mph20.9 kmh 30.14 in1020.7 mb 0.00 in0.0 mm 0.00 in0.0 mm 0.00 in0.0 mm
10:00 PM 49.1°F9.5°C 45.7°F7.6°C 88% 3.3 mph NW5.3 kmh NW 13.0 mph20.9 kmh 30.14 in1020.7 mb 0.00 in0.0 mm 0.00 in0.0 mm 0.00 in0.0 mm
10:05 PM 49.1°F9.5°C 45.7°F7.6°C 88% 5.3 mph NW8.5 kmh NW 11.0 mph17.7 kmh 30.14 in1020.7 mb 0.00 in0.0 mm 0.00 in0.0 mm 0.00 in0.0 mm
10:10 PM 49.1°F9.5°C 45.7°F7.6°C 88% 4.2 mph NW6.8 kmh NW 11.0 mph17.7 kmh 30.14 in1020.7 mb 0.00 in0.0 mm 0.00 in0.0 mm 0.00 in0.0 mm
10:15 PM 49.0°F9.4°C 45.6°F7.6°C 88% 3.4 mph NW5.5 kmh NW 11.0 mph17.7 kmh 30.14 in1020.7 mb 0.00 in0.0 mm 0.00 in0.0 mm 0.00 in0.0 mm
10:20 PM 49.0°F9.4°C 45.6°F7.6°C 88% 3.0 mph NW4.8 kmh NW 11.0 mph17.7 kmh 30.14 in1020.7 mb 0.00 in0.0 mm 0.00 in0.0 mm 0.00 in0.0 mm
10:25 PM 49.0°F9.4°C 45.6°F7.6°C 88% 3.6 mph NW5.8 kmh NW 11.0 mph17.7 kmh 30.15 in1021.0 mb 0.00 in0.0 mm 0.00 in0.0 mm 0.00 in0.0 mm
10:30 PM 48.9°F9.4°C 45.5°F7.5°C 88% 1.9 mph WNW3.1 kmh WNW 11.0 mph17.7 kmh 30.15 in1021.0 mb 0.00 in0.0 mm 0.00 in0.0 mm 0.00 in0.0 mm
10:35 PM 48.9°F9.4°C 45.5°F7.5°C 88% 3.5 mph WNW5.6 kmh WNW 11.0 mph17.7 kmh 30.15 in1021.0 mb 0.00 in0.0 mm 0.00 in0.0 mm 0.00 in0.0 mm
10:40 PM 48.9°F9.4°C 45.8°F7.7°C 89% 4.4 mph NW7.1 kmh NW 10.0 mph16.1 kmh 30.14 in1020.7 mb 0.00 in0.0 mm 0.00 in0.0 mm 0.00 in0.0 mm
10:45 PM 49.0°F9.4°C 45.9°F7.7°C 89% 4.0 mph NW6.4 kmh NW 10.0 mph16.1 kmh 30.14 in1020.7 mb 0.00 in0.0 mm 0.00 in0.0 mm 0.00 in0.0 mm
10:50 PM 49.0°F9.4°C 45.9°F7.7°C 89% 3.8 mph NW6.1 kmh NW 10.0 mph16.1 kmh 30.14 in1020.7 mb 0.00 in0.0 mm 0.00 in0.0 mm 0.00 in0.0 mm
10:55 PM 49.0°F9.4°C 45.9°F7.7°C 89% 4.1 mph NW6.6 kmh NW 11.0 mph17.7 kmh 30.14 in1020.7 mb 0.00 in0.0 mm 0.00 in0.0 mm 0.00 in0.0 mm
11:00 PM 49.0°F9.4°C 45.9°F7.7°C 89% 5.0 mph NW8.0 kmh NW 11.0 mph17.7 kmh 30.14 in1020.7 mb 0.00 in0.0 mm 0.00 in0.0 mm 0.00 in0.0 mm
11:05 PM 49.1°F9.5°C 46.0°F7.8°C 89% 4.2 mph NW6.8 kmh NW 12.0 mph19.3 kmh 30.14 in1020.7 mb 0.00 in0.0 mm 0.00 in0.0 mm 0.00 in0.0 mm
11:10 PM 49.1°F9.5°C 46.0°F7.8°C 89% 3.3 mph NW5.3 kmh NW 13.0 mph20.9 kmh 30.13 in1020.3 mb 0.00 in0.0 mm 0.00 in0.0 mm 0.00 in0.0 mm
11:15 PM 49.1°F9.5°C 46.0°F7.8°C 89% 5.5 mph NW8.9 kmh NW 13.0 mph20.9 kmh 30.13 in1020.3 mb 0.00 in0.0 mm 0.00 in0.0 mm 0.00 in0.0 mm
11:20 PM 49.2°F9.6°C 45.8°F7.7°C 88% 3.4 mph NW5.5 kmh NW 13.0 mph20.9 kmh 30.14 in1020.7 mb 0.00 in0.0 mm 0.00 in0.0 mm 0.00 in0.0 mm
11:25 PM 49.2°F9.6°C 46.1°F7.8°C 89% 3.9 mph NW6.3 kmh NW 13.0 mph20.9 kmh 30.14 in1020.7 mb 0.00 in0.0 mm 0.00 in0.0 mm 0.00 in0.0 mm
11:30 PM 49.3°F9.6°C 45.9°F7.7°C 88% 4.9 mph NW7.9 kmh NW 12.0 mph19.3 kmh 30.14 in1020.7 mb 0.00 in0.0 mm 0.00 in0.0 mm 0.00 in0.0 mm
11:35 PM 49.2°F9.6°C 46.1°F7.8°C 89% 4.3 mph NW6.9 kmh NW 12.0 mph19.3 kmh 30.14 in1020.7 mb 0.00 in0.0 mm 0.00 in0.0 mm 0.00 in0.0 mm
11:40 PM 49.2°F9.6°C 46.1°F7.8°C 89% 4.0 mph WNW6.4 kmh WNW 13.0 mph20.9 kmh 30.14 in1020.7 mb 0.00 in0.0 mm 0.00 in0.0 mm 0.00 in0.0 mm
11:45 PM 49.2°F9.6°C 46.1°F7.8°C 89% 3.8 mph NW6.1 kmh NW 13.0 mph20.9 kmh 30.14 in1020.7 mb 0.00 in0.0 mm 0.00 in0.0 mm 0.00 in0.0 mm
11:50 PM 49.1°F9.5°C 46.0°F7.8°C 89% 5.9 mph NW9.5 kmh NW 13.0 mph20.9 kmh 30.14 in1020.7 mb 0.00 in0.0 mm 0.00 in0.0 mm 0.00 in0.0 mm
11:55 PM 49.1°F9.5°C 46.0°F7.8°C 89% 4.4 mph WNW7.1 kmh WNW 13.0 mph20.9 kmh 30.14 in1020.7 mb 0.00 in0.0 mm 0.00 in0.0 mm 0.00 in0.0 mm